Weather at St Louis Lambert International Airport

Public forecast

Using degrees Fahrenheit for public forecast. Weather courtesy of forecast.io.

Current aviation weather report (METAR) for St Louis Lambert International Airport

Retrieved 2022/05/23 08:51 UTC (10 minutes ago):

KSTL 230851Z 02004KT 10SM CLR 11/06 A3028 RMK AO2 SLP251 T01110061 56010

Aviation forecast (TAF) for St Louis Lambert International Airport

Retrieved 2022/05/23 06:22 UTC (3 hours ago):

TAF KSTL 230520Z 2306/2412 VRB04KT P6SM BKN250